CheckWX is a tool to help pilots better visualize weather data.  It is not intended as a substitute for an official pre-flight weather briefing.

19:48:33 UTC

KADU METAR
Audubon County Airport
Audubon, Iowa, USA
Current

14 mins ago

KADU 211935Z AUTO 18007KT 4SM -RA 23/21 A2986 RMK AO2
Observed
Sep-21 @ 19:35 UTC
Wind
  • 180° at 7 KTS
Visibility
4 SM
Conditions
Light Rain
Temperature
23°C / 73°F
Dewpoint
21°C / 70°F
Humidity
89%
Altimeter
29.86" Hg
Pressure
1011.22 hPa
Previous

34 mins ago

KADU 211915Z AUTO 20008KT 5SM DZ 23/21 A2987 RMK AO2
Observed
Sep-21 @ 19:15 UTC
Wind
  • 200° at 8 KTS
Visibility
5 SM
Conditions
Drizzle
Temperature
23°C / 73°F
Dewpoint
21°C / 70°F
Humidity
89%
Altimeter
29.87" Hg
Pressure
1011.52 hPa
Previous

54 mins ago

KADU 211855Z AUTO 20007KT 10SM 23/21 A2987 RMK AO2
Observed
Sep-21 @ 18:55 UTC
Wind
  • 200° at 7 KTS
Visibility
10 SM
Temperature
23°C / 73°F
Dewpoint
21°C / 70°F
Humidity
89%
Altimeter
29.87" Hg
Pressure
1011.52 hPa